sensor_id;sensor_type;location;lat;lon;timestamp;P1;durP1;ratioP1;P2;durP2;ratioP2
21420;SDS011;10871;50.144;8.428;2023-03-21T00:00:22;7.97;;;4.10;;
21420;SDS011;10871;50.144;8.428;2023-03-21T00:02:48;7.32;;;3.78;;
21420;SDS011;10871;50.144;8.428;2023-03-21T00:05:15;7.60;;;4.25;;
21420;SDS011;10871;50.144;8.428;2023-03-21T00:07:42;6.72;;;4.00;;
21420;SDS011;10871;50.144;8.428;2023-03-21T00:10:08;8.82;;;4.15;;
21420;SDS011;10871;50.144;8.428;2023-03-21T00:12:44;9.20;;;4.18;;
21420;SDS011;10871;50.144;8.428;2023-03-21T00:15:11;8.13;;;3.85;;
21420;SDS011;10871;50.144;8.428;2023-03-21T00:17:38;8.10;;;3.70;;
21420;SDS011;10871;50.144;8.428;2023-03-21T00:20:05;8.40;;;3.50;;
21420;SDS011;10871;50.144;8.428;2023-03-21T00:22:40;10.75;;;3.83;;
21420;SDS011;10871;50.144;8.428;2023-03-21T00:25:07;7.45;;;3.90;;
21420;SDS011;10871;50.144;8.428;2023-03-21T00:27:35;10.30;;;3.95;;
21420;SDS011;10871;50.144;8.428;2023-03-21T00:30:23;9.57;;;4.65;;
21420;SDS011;10871;50.144;8.428;2023-03-21T00:32:49;6.75;;;4.00;;
21420;SDS011;10871;50.144;8.428;2023-03-21T00:35:23;11.27;;;4.10;;
21420;SDS011;10871;50.144;8.428;2023-03-21T00:38:14;10.45;;;4.13;;
21420;SDS011;10871;50.144;8.428;2023-03-21T00:40:41;8.38;;;4.28;;
21420;SDS011;10871;50.144;8.428;2023-03-21T00:43:15;9.80;;;4.28;;
21420;SDS011;10871;50.144;8.428;2023-03-21T00:45:43;12.02;;;4.47;;
21420;SDS011;10871;50.144;8.428;2023-03-21T00:48:09;9.65;;;4.43;;
21420;SDS011;10871;50.144;8.428;2023-03-21T00:50:36;12.48;;;4.20;;
21420;SDS011;10871;50.144;8.428;2023-03-21T00:53:04;11.23;;;4.38;;
21420;SDS011;10871;50.144;8.428;2023-03-21T00:55:31;8.10;;;3.90;;
21420;SDS011;10871;50.144;8.428;2023-03-21T00:57:58;9.98;;;4.38;;
21420;SDS011;10871;50.144;8.428;2023-03-21T01:00:27;9.27;;;4.30;;
21420;SDS011;10871;50.144;8.428;2023-03-21T01:02:55;10.65;;;4.60;;
21420;SDS011;10871;50.144;8.428;2023-03-21T01:05:43;8.13;;;4.05;;
21420;SDS011;10871;50.144;8.428;2023-03-21T01:08:29;10.23;;;4.43;;
21420;SDS011;10871;50.144;8.428;2023-03-21T01:11:15;8.02;;;4.38;;
21420;SDS011;10871;50.144;8.428;2023-03-21T01:13:43;8.40;;;4.28;;
21420;SDS011;10871;50.144;8.428;2023-03-21T01:16:23;9.05;;;3.88;;
21420;SDS011;10871;50.144;8.428;2023-03-21T01:18:51;11.35;;;4.10;;
21420;SDS011;10871;50.144;8.428;2023-03-21T01:21:17;15.65;;;4.18;;
21420;SDS011;10871;50.144;8.428;2023-03-21T01:23:44;6.97;;;3.88;;
21420;SDS011;10871;50.144;8.428;2023-03-21T01:26:11;9.63;;;4.20;;
21420;SDS011;10871;50.144;8.428;2023-03-21T01:28:39;8.50;;;3.70;;
21420;SDS011;10871;50.144;8.428;2023-03-21T01:31:05;8.48;;;3.80;;
21420;SDS011;10871;50.144;8.428;2023-03-21T01:33:32;9.65;;;3.78;;
21420;SDS011;10871;50.144;8.428;2023-03-21T01:35:59;12.75;;;4.28;;
21420;SDS011;10871;50.144;8.428;2023-03-21T01:38:39;10.43;;;4.50;;
21420;SDS011;10871;50.144;8.428;2023-03-21T01:41:05;10.02;;;4.38;;
21420;SDS011;10871;50.144;8.428;2023-03-21T01:43:44;10.27;;;4.72;;
21420;SDS011;10871;50.144;8.428;2023-03-21T01:46:23;12.07;;;4.93;;
21420;SDS011;10871;50.144;8.428;2023-03-21T01:51:39;10.88;;;4.55;;
21420;SDS011;10871;50.144;8.428;2023-03-21T01:54:08;10.05;;;4.88;;
21420;SDS011;10871;50.144;8.428;2023-03-21T01:56:36;10.27;;;4.90;;
21420;SDS011;10871;50.144;8.428;2023-03-21T01:59:14;9.30;;;4.53;;
21420;SDS011;10871;50.144;8.428;2023-03-21T02:02:15;8.75;;;4.00;;
21420;SDS011;10871;50.144;8.428;2023-03-21T02:05:04;7.03;;;4.13;;
21420;SDS011;10871;50.144;8.428;2023-03-21T02:07:32;17.92;;;5.88;;
21420;SDS011;10871;50.144;8.428;2023-03-21T02:10:08;25.63;;;8.57;;
21420;SDS011;10871;50.144;8.428;2023-03-21T02:12:38;26.08;;;9.77;;
21420;SDS011;10871;50.144;8.428;2023-03-21T02:15:06;24.30;;;9.50;;
21420;SDS011;10871;50.144;8.428;2023-03-21T02:17:59;36.03;;;11.82;;
21420;SDS011;10871;50.144;8.428;2023-03-21T02:23:14;29.80;;;9.93;;
21420;SDS011;10871;50.144;8.428;2023-03-21T02:28:14;20.17;;;7.60;;
21420;SDS011;10871;50.144;8.428;2023-03-21T02:33:30;13.40;;;6.38;;
21420;SDS011;10871;50.144;8.428;2023-03-21T02:36:09;16.25;;;6.20;;
21420;SDS011;10871;50.144;8.428;2023-03-21T02:43:48;15.00;;;5.35;;
21420;SDS011;10871;50.144;8.428;2023-03-21T02:49:07;6.82;;;4.45;;
21420;SDS011;10871;50.144;8.428;2023-03-21T02:51:35;8.05;;;4.20;;
21420;SDS011;10871;50.144;8.428;2023-03-21T02:54:04;12.77;;;4.63;;
21420;SDS011;10871;50.144;8.428;2023-03-21T02:56:54;8.35;;;4.15;;
21420;SDS011;10871;50.144;8.428;2023-03-21T02:59:23;7.88;;;4.10;;
21420;SDS011;10871;50.144;8.428;2023-03-21T03:01:54;9.02;;;4.30;;
21420;SDS011;10871;50.144;8.428;2023-03-21T03:04:23;9.45;;;3.97;;
21420;SDS011;10871;50.144;8.428;2023-03-21T03:12:13;9.25;;;4.97;;
21420;SDS011;10871;50.144;8.428;2023-03-21T03:22:45;11.02;;;3.97;;
21420;SDS011;10871;50.144;8.428;2023-03-21T03:25:13;10.52;;;3.70;;
21420;SDS011;10871;50.144;8.428;2023-03-21T03:28:01;7.18;;;4.00;;
21420;SDS011;10871;50.144;8.428;2023-03-21T03:30:30;6.97;;;3.60;;
21420;SDS011;10871;50.144;8.428;2023-03-21T03:33:08;12.43;;;3.80;;
21420;SDS011;10871;50.144;8.428;2023-03-21T03:35:35;10.85;;;3.90;;
21420;SDS011;10871;50.144;8.428;2023-03-21T03:38:03;11.68;;;4.55;;
21420;SDS011;10871;50.144;8.428;2023-03-21T03:40:43;8.27;;;4.10;;
21420;SDS011;10871;50.144;8.428;2023-03-21T03:43:26;10.00;;;4.07;;
21420;SDS011;10871;50.144;8.428;2023-03-21T03:45:55;7.22;;;3.83;;
21420;SDS011;10871;50.144;8.428;2023-03-21T03:48:24;9.20;;;3.67;;
21420;SDS011;10871;50.144;8.428;2023-03-21T03:50:56;8.93;;;3.58;;
21420;SDS011;10871;50.144;8.428;2023-03-21T03:53:50;7.13;;;3.17;;
21420;SDS011;10871;50.144;8.428;2023-03-21T03:56:18;8.77;;;3.15;;
21420;SDS011;10871;50.144;8.428;2023-03-21T03:58:46;7.03;;;3.10;;
21420;SDS011;10871;50.144;8.428;2023-03-21T04:01:17;8.60;;;2.83;;
21420;SDS011;10871;50.144;8.428;2023-03-21T04:03:45;8.80;;;2.92;;
21420;SDS011;10871;50.144;8.428;2023-03-21T04:06:17;7.50;;;3.23;;
21420;SDS011;10871;50.144;8.428;2023-03-21T04:08:45;8.15;;;3.30;;
21420;SDS011;10871;50.144;8.428;2023-03-21T04:11:13;5.63;;;3.17;;
21420;SDS011;10871;50.144;8.428;2023-03-21T04:13:45;6.60;;;3.00;;
21420;SDS011;10871;50.144;8.428;2023-03-21T04:18:45;6.35;;;2.97;;
21420;SDS011;10871;50.144;8.428;2023-03-21T04:21:16;6.80;;;3.20;;
21420;SDS011;10871;50.144;8.428;2023-03-21T04:23:44;9.00;;;3.85;;
21420;SDS011;10871;50.144;8.428;2023-03-21T04:26:10;6.68;;;3.38;;
21420;SDS011;10871;50.144;8.428;2023-03-21T04:28:43;9.13;;;3.30;;
21420;SDS011;10871;50.144;8.428;2023-03-21T04:31:30;6.35;;;3.33;;
21420;SDS011;10871;50.144;8.428;2023-03-21T04:34:07;7.95;;;3.28;;
21420;SDS011;10871;50.144;8.428;2023-03-21T04:36:38;7.57;;;3.00;;
21420;SDS011;10871;50.144;8.428;2023-03-21T04:39:06;7.68;;;3.05;;
21420;SDS011;10871;50.144;8.428;2023-03-21T04:41:38;6.45;;;2.83;;
21420;SDS011;10871;50.144;8.428;2023-03-21T04:44:05;8.40;;;3.10;;
21420;SDS011;10871;50.144;8.428;2023-03-21T04:46:32;5.88;;;3.00;;
21420;SDS011;10871;50.144;8.428;2023-03-21T04:48:59;11.63;;;3.95;;
21420;SDS011;10871;50.144;8.428;2023-03-21T04:51:26;9.30;;;3.28;;
21420;SDS011;10871;50.144;8.428;2023-03-21T04:53:53;8.45;;;3.55;;
21420;SDS011;10871;50.144;8.428;2023-03-21T04:56:26;7.60;;;3.30;;
21420;SDS011;10871;50.144;8.428;2023-03-21T04:58:58;7.88;;;3.40;;
21420;SDS011;10871;50.144;8.428;2023-03-21T05:01:24;5.28;;;3.30;;
21420;SDS011;10871;50.144;8.428;2023-03-21T05:03:59;8.32;;;3.10;;
21420;SDS011;10871;50.144;8.428;2023-03-21T05:06:29;10.38;;;3.75;;
21420;SDS011;10871;50.144;8.428;2023-03-21T05:08:57;5.43;;;3.63;;
21420;SDS011;10871;50.144;8.428;2023-03-21T05:11:28;8.90;;;3.58;;
21420;SDS011;10871;50.144;8.428;2023-03-21T05:13:58;7.50;;;3.05;;
21420;SDS011;10871;50.144;8.428;2023-03-21T05:16:24;8.73;;;3.17;;
21420;SDS011;10871;50.144;8.428;2023-03-21T05:18:57;8.10;;;3.70;;
21420;SDS011;10871;50.144;8.428;2023-03-21T05:21:25;9.27;;;3.78;;
21420;SDS011;10871;50.144;8.428;2023-03-21T05:23:56;11.18;;;3.58;;
21420;SDS011;10871;50.144;8.428;2023-03-21T05:26:23;8.07;;;4.07;;
21420;SDS011;10871;50.144;8.428;2023-03-21T05:28:57;7.18;;;3.55;;
21420;SDS011;10871;50.144;8.428;2023-03-21T05:31:24;8.13;;;4.45;;
21420;SDS011;10871;50.144;8.428;2023-03-21T05:34:02;9.85;;;3.83;;
21420;SDS011;10871;50.144;8.428;2023-03-21T05:36:28;8.15;;;3.72;;
21420;SDS011;10871;50.144;8.428;2023-03-21T05:38:55;10.07;;;4.00;;
21420;SDS011;10871;50.144;8.428;2023-03-21T05:41:22;7.40;;;3.90;;
21420;SDS011;10871;50.144;8.428;2023-03-21T05:43:49;8.45;;;3.85;;
21420;SDS011;10871;50.144;8.428;2023-03-21T05:46:16;9.82;;;3.92;;
21420;SDS011;10871;50.144;8.428;2023-03-21T05:48:43;8.63;;;3.75;;
21420;SDS011;10871;50.144;8.428;2023-03-21T05:51:13;8.55;;;3.70;;
21420;SDS011;10871;50.144;8.428;2023-03-21T05:53:39;4.38;;;3.25;;
21420;SDS011;10871;50.144;8.428;2023-03-21T05:56:06;8.52;;;3.65;;
21420;SDS011;10871;50.144;8.428;2023-03-21T05:58:46;6.95;;;3.90;;
21420;SDS011;10871;50.144;8.428;2023-03-21T06:01:13;7.88;;;3.80;;
21420;SDS011;10871;50.144;8.428;2023-03-21T06:03:45;6.90;;;3.70;;
21420;SDS011;10871;50.144;8.428;2023-03-21T06:06:16;4.72;;;3.38;;
21420;SDS011;10871;50.144;8.428;2023-03-21T06:08:51;7.82;;;3.22;;
21420;SDS011;10871;50.144;8.428;2023-03-21T06:11:21;8.98;;;3.60;;
21420;SDS011;10871;50.144;8.428;2023-03-21T06:13:51;6.57;;;3.00;;
21420;SDS011;10871;50.144;8.428;2023-03-21T06:16:20;8.70;;;3.60;;
21420;SDS011;10871;50.144;8.428;2023-03-21T06:18:47;9.05;;;3.70;;
21420;SDS011;10871;50.144;8.428;2023-03-21T06:21:29;10.63;;;3.35;;
21420;SDS011;10871;50.144;8.428;2023-03-21T06:23:56;9.57;;;3.97;;
21420;SDS011;10871;50.144;8.428;2023-03-21T06:26:22;6.15;;;3.13;;
21420;SDS011;10871;50.144;8.428;2023-03-21T06:28:52;7.75;;;3.28;;
21420;SDS011;10871;50.144;8.428;2023-03-21T06:31:19;8.00;;;3.47;;
21420;SDS011;10871;50.144;8.428;2023-03-21T06:33:49;8.45;;;4.10;;
21420;SDS011;10871;50.144;8.428;2023-03-21T06:36:17;6.47;;;3.85;;
21420;SDS011;10871;50.144;8.428;2023-03-21T06:38:45;10.70;;;4.47;;
21420;SDS011;10871;50.144;8.428;2023-03-21T06:41:14;11.95;;;4.65;;
21420;SDS011;10871;50.144;8.428;2023-03-21T06:43:52;8.63;;;4.38;;
21420;SDS011;10871;50.144;8.428;2023-03-21T06:46:19;7.05;;;4.50;;
21420;SDS011;10871;50.144;8.428;2023-03-21T06:48:46;9.85;;;4.80;;
21420;SDS011;10871;50.144;8.428;2023-03-21T06:51:13;7.70;;;4.55;;
21420;SDS011;10871;50.144;8.428;2023-03-21T06:53:52;9.98;;;5.22;;
21420;SDS011;10871;50.144;8.428;2023-03-21T06:56:27;10.45;;;5.25;;
21420;SDS011;10871;50.144;8.428;2023-03-21T06:58:54;10.05;;;5.05;;
21420;SDS011;10871;50.144;8.428;2023-03-21T07:01:40;9.55;;;5.20;;
21420;SDS011;10871;50.144;8.428;2023-03-21T07:04:08;13.85;;;5.20;;
21420;SDS011;10871;50.144;8.428;2023-03-21T07:06:36;7.53;;;4.82;;
21420;SDS011;10871;50.144;8.428;2023-03-21T07:09:04;9.73;;;4.93;;
21420;SDS011;10871;50.144;8.428;2023-03-21T07:11:31;12.20;;;5.15;;
21420;SDS011;10871;50.144;8.428;2023-03-21T07:13:59;10.93;;;4.97;;
21420;SDS011;10871;50.144;8.428;2023-03-21T07:16:26;9.02;;;5.03;;
21420;SDS011;10871;50.144;8.428;2023-03-21T07:18:53;9.50;;;5.07;;
21420;SDS011;10871;50.144;8.428;2023-03-21T07:21:21;11.25;;;5.13;;
21420;SDS011;10871;50.144;8.428;2023-03-21T07:23:48;11.52;;;5.18;;
21420;SDS011;10871;50.144;8.428;2023-03-21T07:26:15;10.18;;;4.70;;
21420;SDS011;10871;50.144;8.428;2023-03-21T07:28:46;14.45;;;5.40;;
21420;SDS011;10871;50.144;8.428;2023-03-21T07:31:14;12.68;;;5.72;;
21420;SDS011;10871;50.144;8.428;2023-03-21T07:33:41;9.32;;;5.25;;
21420;SDS011;10871;50.144;8.428;2023-03-21T07:36:11;9.20;;;5.10;;
21420;SDS011;10871;50.144;8.428;2023-03-21T07:38:38;10.35;;;5.57;;
21420;SDS011;10871;50.144;8.428;2023-03-21T07:41:06;10.82;;;5.20;;
21420;SDS011;10871;50.144;8.428;2023-03-21T07:43:33;10.23;;;5.03;;
21420;SDS011;10871;50.144;8.428;2023-03-21T07:46:07;11.07;;;5.20;;
21420;SDS011;10871;50.144;8.428;2023-03-21T07:48:33;10.05;;;5.00;;
21420;SDS011;10871;50.144;8.428;2023-03-21T07:51:00;11.40;;;4.80;;
21420;SDS011;10871;50.144;8.428;2023-03-21T07:53:28;11.85;;;4.88;;
21420;SDS011;10871;50.144;8.428;2023-03-21T07:55:55;12.32;;;5.32;;
21420;SDS011;10871;50.144;8.428;2023-03-21T07:58:23;10.57;;;4.75;;
21420;SDS011;10871;50.144;8.428;2023-03-21T08:00:50;10.32;;;5.03;;
21420;SDS011;10871;50.144;8.428;2023-03-21T08:03:17;11.10;;;5.07;;
21420;SDS011;10871;50.144;8.428;2023-03-21T08:05:44;10.77;;;5.05;;
21420;SDS011;10871;50.144;8.428;2023-03-21T08:08:11;9.52;;;4.57;;
21420;SDS011;10871;50.144;8.428;2023-03-21T08:10:37;10.30;;;4.53;;
21420;SDS011;10871;50.144;8.428;2023-03-21T08:13:05;8.95;;;5.18;;
21420;SDS011;10871;50.144;8.428;2023-03-21T08:15:31;9.50;;;4.85;;
21420;SDS011;10871;50.144;8.428;2023-03-21T08:17:58;9.55;;;5.07;;
21420;SDS011;10871;50.144;8.428;2023-03-21T08:20:25;8.65;;;4.93;;
21420;SDS011;10871;50.144;8.428;2023-03-21T08:22:52;10.43;;;5.18;;
21420;SDS011;10871;50.144;8.428;2023-03-21T08:25:20;12.50;;;5.38;;
21420;SDS011;10871;50.144;8.428;2023-03-21T08:27:47;7.68;;;4.65;;
21420;SDS011;10871;50.144;8.428;2023-03-21T08:30:16;10.07;;;5.35;;
21420;SDS011;10871;50.144;8.428;2023-03-21T08:32:43;14.13;;;5.72;;
21420;SDS011;10871;50.144;8.428;2023-03-21T08:35:11;9.00;;;4.68;;
21420;SDS011;10871;50.144;8.428;2023-03-21T08:37:40;10.75;;;5.05;;
21420;SDS011;10871;50.144;8.428;2023-03-21T08:40:08;9.30;;;5.22;;
21420;SDS011;10871;50.144;8.428;2023-03-21T08:42:39;10.75;;;5.28;;
21420;SDS011;10871;50.144;8.428;2023-03-21T08:45:07;11.65;;;5.85;;
21420;SDS011;10871;50.144;8.428;2023-03-21T08:47:34;10.70;;;5.43;;
21420;SDS011;10871;50.144;8.428;2023-03-21T08:50:00;9.93;;;5.28;;
21420;SDS011;10871;50.144;8.428;2023-03-21T08:52:31;12.48;;;5.57;;
21420;SDS011;10871;50.144;8.428;2023-03-21T08:54:59;10.77;;;5.70;;
21420;SDS011;10871;50.144;8.428;2023-03-21T08:57:27;10.23;;;5.20;;
21420;SDS011;10871;50.144;8.428;2023-03-21T08:59:54;9.85;;;4.78;;
21420;SDS011;10871;50.144;8.428;2023-03-21T09:02:21;10.75;;;4.82;;
21420;SDS011;10871;50.144;8.428;2023-03-21T09:04:47;9.77;;;4.80;;
21420;SDS011;10871;50.144;8.428;2023-03-21T09:07:14;10.43;;;4.60;;
21420;SDS011;10871;50.144;8.428;2023-03-21T09:09:43;9.20;;;4.95;;
21420;SDS011;10871;50.144;8.428;2023-03-21T09:12:16;12.38;;;5.10;;
21420;SDS011;10871;50.144;8.428;2023-03-21T09:14:42;7.95;;;5.20;;
21420;SDS011;10871;50.144;8.428;2023-03-21T09:17:09;9.60;;;4.47;;
21420;SDS011;10871;50.144;8.428;2023-03-21T09:19:35;11.48;;;4.90;;
21420;SDS011;10871;50.144;8.428;2023-03-21T09:22:04;14.52;;;4.55;;
21420;SDS011;10871;50.144;8.428;2023-03-21T09:24:30;8.43;;;4.75;;
21420;SDS011;10871;50.144;8.428;2023-03-21T09:26:57;10.85;;;4.75;;
21420;SDS011;10871;50.144;8.428;2023-03-21T09:29:23;8.32;;;4.47;;
21420;SDS011;10871;50.144;8.428;2023-03-21T09:31:50;10.75;;;4.90;;
21420;SDS011;10871;50.144;8.428;2023-03-21T09:34:18;10.30;;;4.60;;
21420;SDS011;10871;50.144;8.428;2023-03-21T09:36:46;9.25;;;4.55;;
21420;SDS011;10871;50.144;8.428;2023-03-21T09:39:22;12.05;;;3.97;;
21420;SDS011;10871;50.144;8.428;2023-03-21T09:46:55;9.50;;;4.25;;
21420;SDS011;10871;50.144;8.428;2023-03-21T09:49:24;12.23;;;4.82;;
21420;SDS011;10871;50.144;8.428;2023-03-21T09:51:59;8.00;;;4.18;;
21420;SDS011;10871;50.144;8.428;2023-03-21T09:54:30;9.45;;;3.97;;
21420;SDS011;10871;50.144;8.428;2023-03-21T09:57:00;8.15;;;3.58;;
21420;SDS011;10871;50.144;8.428;2023-03-21T09:59:35;9.05;;;3.90;;
21420;SDS011;10871;50.144;8.428;2023-03-21T10:02:25;5.97;;;3.60;;
21420;SDS011;10871;50.144;8.428;2023-03-21T10:05:02;8.40;;;3.40;;
21420;SDS011;10871;50.144;8.428;2023-03-21T10:07:38;8.55;;;3.90;;
21420;SDS011;10871;50.144;8.428;2023-03-21T10:10:11;10.20;;;3.65;;
21420;SDS011;10871;50.144;8.428;2023-03-21T10:12:40;8.35;;;3.70;;
21420;SDS011;10871;50.144;8.428;2023-03-21T10:15:09;11.70;;;3.90;;
21420;SDS011;10871;50.144;8.428;2023-03-21T10:17:41;10.07;;;4.18;;
21420;SDS011;10871;50.144;8.428;2023-03-21T10:20:15;8.25;;;5.22;;
21420;SDS011;10871;50.144;8.428;2023-03-21T10:22:43;10.25;;;4.38;;
21420;SDS011;10871;50.144;8.428;2023-03-21T10:25:17;10.45;;;4.30;;
21420;SDS011;10871;50.144;8.428;2023-03-21T10:27:44;9.77;;;5.13;;
21420;SDS011;10871;50.144;8.428;2023-03-21T10:30:18;10.25;;;4.57;;
21420;SDS011;10871;50.144;8.428;2023-03-21T10:32:47;12.55;;;5.50;;
21420;SDS011;10871;50.144;8.428;2023-03-21T10:35:14;11.68;;;4.80;;
21420;SDS011;10871;50.144;8.428;2023-03-21T10:37:42;9.52;;;5.75;;
21420;SDS011;10871;50.144;8.428;2023-03-21T10:40:13;11.50;;;5.47;;
21420;SDS011;10871;50.144;8.428;2023-03-21T10:42:41;8.02;;;5.00;;
21420;SDS011;10871;50.144;8.428;2023-03-21T10:45:14;12.32;;;6.05;;
21420;SDS011;10871;50.144;8.428;2023-03-21T10:47:42;14.73;;;6.18;;
21420;SDS011;10871;50.144;8.428;2023-03-21T10:50:13;11.55;;;6.07;;
21420;SDS011;10871;50.144;8.428;2023-03-21T10:52:52;11.80;;;6.25;;
21420;SDS011;10871;50.144;8.428;2023-03-21T10:55:24;14.05;;;6.85;;
21420;SDS011;10871;50.144;8.428;2023-03-21T10:57:53;18.25;;;7.95;;
21420;SDS011;10871;50.144;8.428;2023-03-21T11:00:22;16.02;;;8.55;;
21420;SDS011;10871;50.144;8.428;2023-03-21T11:02:50;16.45;;;7.72;;
21420;SDS011;10871;50.144;8.428;2023-03-21T11:05:20;12.02;;;6.93;;
21420;SDS011;10871;50.144;8.428;2023-03-21T11:07:58;12.60;;;7.35;;
21420;SDS011;10871;50.144;8.428;2023-03-21T11:10:27;15.38;;;8.23;;
21420;SDS011;10871;50.144;8.428;2023-03-21T11:12:55;15.13;;;8.30;;
21420;SDS011;10871;50.144;8.428;2023-03-21T11:15:31;14.38;;;7.35;;
21420;SDS011;10871;50.144;8.428;2023-03-21T11:18:00;13.68;;;7.50;;
21420;SDS011;10871;50.144;8.428;2023-03-21T11:20:40;11.48;;;6.88;;
21420;SDS011;10871;50.144;8.428;2023-03-21T11:23:09;11.88;;;6.82;;
21420;SDS011;10871;50.144;8.428;2023-03-21T11:25:36;17.35;;;7.32;;
21420;SDS011;10871;50.144;8.428;2023-03-21T11:28:05;14.90;;;6.47;;
21420;SDS011;10871;50.144;8.428;2023-03-21T11:30:32;10.60;;;6.43;;
21420;SDS011;10871;50.144;8.428;2023-03-21T11:33:02;12.20;;;6.78;;
21420;SDS011;10871;50.144;8.428;2023-03-21T11:35:34;16.13;;;6.95;;
21420;SDS011;10871;50.144;8.428;2023-03-21T11:38:02;14.48;;;6.80;;
21420;SDS011;10871;50.144;8.428;2023-03-21T11:40:32;13.07;;;6.75;;
21420;SDS011;10871;50.144;8.428;2023-03-21T11:43:00;9.98;;;6.80;;
21420;SDS011;10871;50.144;8.428;2023-03-21T11:45:28;11.70;;;6.90;;
21420;SDS011;10871;50.144;8.428;2023-03-21T11:47:59;9.93;;;6.65;;
21420;SDS011;10871;50.144;8.428;2023-03-21T11:50:30;11.82;;;6.78;;
21420;SDS011;10871;50.144;8.428;2023-03-21T11:53:16;9.90;;;6.05;;
21420;SDS011;10871;50.144;8.428;2023-03-21T11:58:32;10.95;;;6.70;;
21420;SDS011;10871;50.144;8.428;2023-03-21T12:03:54;10.75;;;6.25;;
21420;SDS011;10871;50.144;8.428;2023-03-21T12:06:24;10.43;;;5.82;;
21420;SDS011;10871;50.144;8.428;2023-03-21T12:11:20;11.88;;;5.93;;
21420;SDS011;10871;50.144;8.428;2023-03-21T12:14:00;11.77;;;6.03;;
21420;SDS011;10871;50.144;8.428;2023-03-21T12:18:58;10.65;;;5.88;;
21420;SDS011;10871;50.144;8.428;2023-03-21T12:26:56;11.75;;;6.10;;
21420;SDS011;10871;50.144;8.428;2023-03-21T12:34:40;12.45;;;6.43;;
21420;SDS011;10871;50.144;8.428;2023-03-21T12:45:37;14.20;;;6.13;;
21420;SDS011;10871;50.144;8.428;2023-03-21T12:50:58;11.07;;;6.35;;
21420;SDS011;10871;50.144;8.428;2023-03-21T12:53:28;10.57;;;6.05;;
21420;SDS011;10871;50.144;8.428;2023-03-21T12:55:57;13.00;;;6.25;;
21420;SDS011;10871;50.144;8.428;2023-03-21T12:58:25;13.55;;;7.13;;
21420;SDS011;10871;50.144;8.428;2023-03-21T13:00:54;13.57;;;7.00;;
21420;SDS011;10871;50.144;8.428;2023-03-21T13:03:28;12.05;;;7.03;;
21420;SDS011;10871;50.144;8.428;2023-03-21T13:06:06;12.00;;;7.03;;
21420;SDS011;10871;50.144;8.428;2023-03-21T13:08:38;12.02;;;7.28;;
21420;SDS011;10871;50.144;8.428;2023-03-21T13:11:07;11.33;;;6.97;;
21420;SDS011;10871;50.144;8.428;2023-03-21T13:13:38;9.38;;;6.43;;
21420;SDS011;10871;50.144;8.428;2023-03-21T13:16:17;9.45;;;6.30;;
21420;SDS011;10871;50.144;8.428;2023-03-21T13:18:51;11.05;;;7.13;;
21420;SDS011;10871;50.144;8.428;2023-03-21T13:21:30;13.43;;;7.50;;
21420;SDS011;10871;50.144;8.428;2023-03-21T13:24:01;10.70;;;6.18;;
21420;SDS011;10871;50.144;8.428;2023-03-21T13:26:36;11.98;;;6.97;;
21420;SDS011;10871;50.144;8.428;2023-03-21T13:29:21;15.80;;;7.18;;
21420;SDS011;10871;50.144;8.428;2023-03-21T13:31:49;11.95;;;6.97;;
21420;SDS011;10871;50.144;8.428;2023-03-21T13:34:22;13.30;;;6.97;;
21420;SDS011;10871;50.144;8.428;2023-03-21T13:36:49;13.07;;;6.97;;
21420;SDS011;10871;50.144;8.428;2023-03-21T13:39:18;11.38;;;7.28;;
21420;SDS011;10871;50.144;8.428;2023-03-21T13:41:46;13.43;;;7.65;;
21420;SDS011;10871;50.144;8.428;2023-03-21T13:47:34;12.52;;;8.13;;
21420;SDS011;10871;50.144;8.428;2023-03-21T13:49:38;14.55;;;8.43;;
21420;SDS011;10871;50.144;8.428;2023-03-21T13:57:04;14.45;;;9.15;;
21420;SDS011;10871;50.144;8.428;2023-03-21T13:59:36;17.38;;;9.63;;
21420;SDS011;10871;50.144;8.428;2023-03-21T14:04:39;14.13;;;10.07;;
21420;SDS011;10871;50.144;8.428;2023-03-21T14:07:31;15.40;;;10.35;;
21420;SDS011;10871;50.144;8.428;2023-03-21T14:09:59;19.80;;;10.00;;
21420;SDS011;10871;50.144;8.428;2023-03-21T14:12:37;22.27;;;11.75;;
21420;SDS011;10871;50.144;8.428;2023-03-21T14:15:18;18.45;;;11.50;;
21420;SDS011;10871;50.144;8.428;2023-03-21T14:17:52;21.10;;;11.05;;
21420;SDS011;10871;50.144;8.428;2023-03-21T14:20:22;19.13;;;11.52;;
21420;SDS011;10871;50.144;8.428;2023-03-21T14:22:49;19.98;;;11.43;;
21420;SDS011;10871;50.144;8.428;2023-03-21T14:25:17;18.23;;;12.23;;
21420;SDS011;10871;50.144;8.428;2023-03-21T14:27:48;20.55;;;13.05;;
21420;SDS011;10871;50.144;8.428;2023-03-21T14:30:20;18.48;;;13.15;;
21420;SDS011;10871;50.144;8.428;2023-03-21T14:32:48;21.83;;;12.55;;
21420;SDS011;10871;50.144;8.428;2023-03-21T14:35:14;21.50;;;12.93;;
21420;SDS011;10871;50.144;8.428;2023-03-21T14:37:42;22.10;;;13.00;;
21420;SDS011;10871;50.144;8.428;2023-03-21T14:40:23;22.65;;;13.15;;
21420;SDS011;10871;50.144;8.428;2023-03-21T14:42:50;23.23;;;12.45;;
21420;SDS011;10871;50.144;8.428;2023-03-21T14:48:07;18.77;;;10.98;;
21420;SDS011;10871;50.144;8.428;2023-03-21T14:50:49;19.38;;;11.57;;
21420;SDS011;10871;50.144;8.428;2023-03-21T14:53:20;12.88;;;9.80;;
21420;SDS011;10871;50.144;8.428;2023-03-21T14:55:56;13.95;;;9.95;;
21420;SDS011;10871;50.144;8.428;2023-03-21T14:58:23;15.23;;;10.27;;
21420;SDS011;10871;50.144;8.428;2023-03-21T15:00:50;16.75;;;9.70;;
21420;SDS011;10871;50.144;8.428;2023-03-21T15:03:17;14.35;;;9.10;;
21420;SDS011;10871;50.144;8.428;2023-03-21T15:05:47;15.82;;;10.07;;
21420;SDS011;10871;50.144;8.428;2023-03-21T15:08:14;18.52;;;9.25;;
21420;SDS011;10871;50.144;8.428;2023-03-21T15:10:41;14.75;;;9.43;;
21420;SDS011;10871;50.144;8.428;2023-03-21T15:13:15;15.65;;;9.32;;
21420;SDS011;10871;50.144;8.428;2023-03-21T15:15:44;16.77;;;9.77;;
21420;SDS011;10871;50.144;8.428;2023-03-21T15:18:12;14.80;;;8.73;;
21420;SDS011;10871;50.144;8.428;2023-03-21T15:20:39;13.35;;;8.77;;
21420;SDS011;10871;50.144;8.428;2023-03-21T15:23:13;17.67;;;10.00;;
21420;SDS011;10871;50.144;8.428;2023-03-21T15:25:41;12.80;;;8.98;;
21420;SDS011;10871;50.144;8.428;2023-03-21T15:28:11;12.30;;;9.60;;
21420;SDS011;10871;50.144;8.428;2023-03-21T15:30:39;15.10;;;9.40;;
21420;SDS011;10871;50.144;8.428;2023-03-21T15:35:43;19.48;;;9.85;;
21420;SDS011;10871;50.144;8.428;2023-03-21T15:40:47;14.43;;;9.25;;
21420;SDS011;10871;50.144;8.428;2023-03-21T15:43:15;16.30;;;10.00;;
21420;SDS011;10871;50.144;8.428;2023-03-21T15:45:45;16.73;;;9.38;;
21420;SDS011;10871;50.144;8.428;2023-03-21T15:48:12;13.82;;;9.60;;
21420;SDS011;10871;50.144;8.428;2023-03-21T15:50:47;13.80;;;8.57;;
21420;SDS011;10871;50.144;8.428;2023-03-21T15:53:16;17.05;;;9.55;;
21420;SDS011;10871;50.144;8.428;2023-03-21T15:55:57;16.05;;;9.63;;
21420;SDS011;10871;50.144;8.428;2023-03-21T15:58:34;14.13;;;10.50;;
21420;SDS011;10871;50.144;8.428;2023-03-21T16:01:05;16.50;;;10.20;;
21420;SDS011;10871;50.144;8.428;2023-03-21T16:03:37;14.73;;;9.30;;
21420;SDS011;10871;50.144;8.428;2023-03-21T16:08:52;12.82;;;10.23;;
21420;SDS011;10871;50.144;8.428;2023-03-21T16:11:28;16.13;;;9.93;;
21420;SDS011;10871;50.144;8.428;2023-03-21T16:14:02;15.57;;;10.95;;
21420;SDS011;10871;50.144;8.428;2023-03-21T16:16:29;15.23;;;10.48;;
21420;SDS011;10871;50.144;8.428;2023-03-21T16:18:57;17.63;;;10.65;;
21420;SDS011;10871;50.144;8.428;2023-03-21T16:21:25;17.17;;;11.05;;
21420;SDS011;10871;50.144;8.428;2023-03-21T16:23:52;16.27;;;11.65;;
21420;SDS011;10871;50.144;8.428;2023-03-21T16:26:22;17.20;;;12.00;;
21420;SDS011;10871;50.144;8.428;2023-03-21T16:28:49;18.13;;;11.70;;
21420;SDS011;10871;50.144;8.428;2023-03-21T16:31:26;19.35;;;11.63;;